createdAt,value
2018-06-17T00:02:09.616Z,94937.63
2018-06-17T00:04:38.945Z,94944.53
2018-06-17T00:07:08.401Z,94951.41
2018-06-17T00:09:37.792Z,94952.08
2018-06-17T00:12:07.149Z,94952.97
2018-06-17T00:14:36.535Z,94955.55
2018-06-17T00:17:06.105Z,94959.92
2018-06-17T00:19:35.529Z,94965.00
2018-06-17T00:22:04.982Z,94954.46
2018-06-17T00:24:34.331Z,94953.07
2018-06-17T00:27:03.754Z,94960.38
2018-06-17T00:29:33.062Z,94951.38
2018-06-17T00:32:02.420Z,94956.84
2018-06-17T00:34:31.768Z,94952.05
2018-06-17T00:37:01.115Z,94956.47
2018-06-17T00:39:30.598Z,94956.67
2018-06-17T00:41:59.976Z,94958.05
2018-06-17T00:44:29.421Z,94962.84
2018-06-17T00:46:58.792Z,94967.40
2018-06-17T00:49:28.213Z,94958.61
2018-06-17T00:51:57.574Z,94957.70
2018-06-17T00:54:27.013Z,94956.33
2018-06-17T00:57:07.497Z,94964.44
2018-06-17T00:59:36.920Z,94955.42
2018-06-17T01:02:06.254Z,94951.12
2018-06-17T01:04:35.597Z,94961.50
2018-06-17T01:07:05.006Z,94959.74
2018-06-17T01:09:34.483Z,94955.44
2018-06-17T01:12:03.937Z,94955.56
2018-06-17T01:14:33.276Z,94956.12
2018-06-17T01:17:02.609Z,94950.89
2018-06-17T01:19:32.280Z,94950.66
2018-06-17T01:22:01.941Z,94951.07
2018-06-17T01:24:31.242Z,94952.10
2018-06-17T01:27:00.599Z,94943.90
2018-06-17T01:29:29.964Z,94944.73
2018-06-17T01:31:59.469Z,94946.31
2018-06-17T01:34:29.043Z,94950.66
2018-06-17T01:36:58.445Z,94955.82
2018-06-17T01:39:29.096Z,94951.16
2018-06-17T01:41:58.589Z,94957.04
2018-06-17T01:44:28.086Z,94954.73
2018-06-17T01:46:57.520Z,94962.58
2018-06-17T01:49:26.988Z,94963.27
2018-06-17T01:51:56.440Z,94966.36
2018-06-17T01:54:25.827Z,94973.57
2018-06-17T01:56:55.197Z,94983.83
2018-06-17T01:59:24.531Z,94979.09
2018-06-17T02:01:53.869Z,94989.97
2018-06-17T02:04:28.411Z,94993.96
2018-06-17T02:07:02.890Z,94982.69
2018-06-17T02:09:37.498Z,94986.54
2018-06-17T02:12:12.262Z,94987.68
2018-06-17T02:14:46.817Z,94985.41
2018-06-17T02:17:16.147Z,94991.62
2018-06-17T02:19:45.493Z,94985.09
2018-06-17T02:22:14.805Z,94985.49
2018-06-17T02:24:44.278Z,94990.56
2018-06-17T02:27:13.668Z,94991.75
2018-06-17T02:29:43.227Z,94988.20
2018-06-17T02:32:12.782Z,94991.05
2018-06-17T02:34:42.129Z,94992.52
2018-06-17T02:37:11.533Z,94988.94
2018-06-17T02:39:41.030Z,94992.83
2018-06-17T02:42:10.768Z,94987.16
2018-06-17T02:44:40.176Z,94994.73
2018-06-17T02:47:14.793Z,94990.42
2018-06-17T02:49:47.192Z,95004.27
2018-06-17T02:52:21.903Z,95001.39
2018-06-17T02:54:51.233Z,94995.86
2018-06-17T02:57:20.873Z,95001.42
2018-06-17T02:59:50.178Z,94993.78
2018-06-17T03:02:19.498Z,94997.30
2018-06-17T03:04:48.805Z,94994.75
2018-06-17T03:07:18.204Z,94999.22
2018-06-17T03:09:47.524Z,95002.59
2018-06-17T03:12:16.892Z,95002.83
2018-06-17T03:14:46.197Z,95002.46
2018-06-17T03:17:15.533Z,95008.88
2018-06-17T03:19:44.929Z,95012.87
2018-06-17T03:22:14.287Z,95009.94
2018-06-17T03:24:49.042Z,95001.42
2018-06-17T03:27:23.390Z,95003.33
2018-06-17T03:29:57.936Z,95003.46
2018-06-17T03:32:32.691Z,95002.95
2018-06-17T03:35:07.302Z,95002.08
2018-06-17T03:37:36.682Z,95014.18
2018-06-17T03:40:06.018Z,95009.63
2018-06-17T03:42:35.449Z,95013.80
2018-06-17T03:45:04.900Z,95023.05
2018-06-17T03:47:34.250Z,95020.12
2018-06-17T03:50:03.804Z,95013.59
2018-06-17T03:52:33.322Z,95024.67
2018-06-17T03:55:02.879Z,95025.38
2018-06-17T03:57:32.313Z,95015.18
2018-06-17T04:00:01.746Z,95020.90
2018-06-17T04:02:33.921Z,95018.81
2018-06-17T04:05:08.715Z,95026.42
2018-06-17T04:07:38.134Z,95020.44
2018-06-17T04:10:07.507Z,95018.59
2018-06-17T04:12:36.886Z,95022.78
2018-06-17T04:15:06.264Z,95021.62
2018-06-17T04:17:35.602Z,95024.57
2018-06-17T04:20:05.049Z,95030.92
2018-06-17T04:22:34.371Z,95022.94
2018-06-17T04:25:03.882Z,95028.97
2018-06-17T04:27:33.219Z,95027.62
2018-06-17T04:30:02.668Z,95028.20
2018-06-17T04:32:32.094Z,95030.77
2018-06-17T04:35:01.419Z,95032.80
2018-06-17T04:37:31.689Z,95031.16
2018-06-17T04:40:01.146Z,95038.69
2018-06-17T04:42:30.610Z,95041.50
2018-06-17T04:45:00.272Z,95043.02
2018-06-17T04:47:29.714Z,95045.61
2018-06-17T04:49:59.038Z,95042.56
2018-06-17T04:52:28.382Z,95050.15
2018-06-17T04:54:57.717Z,95050.55
2018-06-17T04:57:27.166Z,95051.70
2018-06-17T04:59:56.748Z,95046.94
2018-06-17T05:02:26.333Z,95039.28
2018-06-17T05:04:55.733Z,95038.36
2018-06-17T05:07:25.050Z,95043.58
2018-06-17T05:09:54.578Z,95052.26
2018-06-17T05:12:24.069Z,95053.81
2018-06-17T05:14:53.614Z,95049.92
2018-06-17T05:17:23.050Z,95052.53
2018-06-17T05:19:52.357Z,95051.17
2018-06-17T05:22:24.644Z,95044.59
2018-06-17T05:24:53.993Z,95049.83
2018-06-17T05:27:23.450Z,95046.06
2018-06-17T05:29:52.749Z,95041.02
2018-06-17T05:32:22.160Z,95047.66
2018-06-17T05:34:51.510Z,95050.99
2018-06-17T05:37:20.833Z,95052.25
2018-06-17T05:39:50.232Z,95058.30
2018-06-17T05:42:19.545Z,95054.41
2018-06-17T05:44:48.918Z,95053.89
2018-06-17T05:47:18.236Z,95056.90
2018-06-17T05:49:47.533Z,95063.64
2018-06-17T05:52:16.844Z,95065.12
2018-06-17T05:54:46.173Z,95073.44
2018-06-17T05:57:15.473Z,95075.87
2018-06-17T05:59:44.822Z,95067.03
2018-06-17T06:02:14.273Z,95068.73
2018-06-17T06:04:43.617Z,95061.97
2018-06-17T06:07:12.982Z,95068.72
2018-06-17T06:09:42.278Z,95064.50
2018-06-17T06:12:11.589Z,95070.47
2018-06-17T06:14:40.919Z,95068.55
2018-06-17T06:17:10.181Z,95067.98
2018-06-17T06:19:39.530Z,95075.60
2018-06-17T06:22:08.889Z,95076.87
2018-06-17T06:24:38.299Z,95072.17
2018-06-17T06:27:07.599Z,95068.66
2018-06-17T06:29:36.878Z,95069.86
2018-06-17T06:32:06.204Z,95070.77
2018-06-17T06:34:35.476Z,95073.45
2018-06-17T06:37:05.306Z,95071.78
2018-06-17T06:39:34.718Z,95072.92
2018-06-17T06:42:04.104Z,95064.27
2018-06-17T06:44:33.427Z,95075.67
2018-06-17T06:47:02.805Z,95074.53
2018-06-17T06:49:32.120Z,95078.45
2018-06-17T06:52:01.453Z,95079.77
2018-06-17T06:54:30.820Z,95081.91
2018-06-17T06:57:00.095Z,95079.54
2018-06-17T06:59:29.416Z,95079.39
2018-06-17T07:02:10.077Z,95086.47
2018-06-17T07:04:50.697Z,95094.88
2018-06-17T07:07:31.271Z,95094.62
2018-06-17T07:10:11.796Z,95092.55
2018-06-17T07:12:41.084Z,95097.86
2018-06-17T07:15:10.380Z,95096.28
2018-06-17T07:17:50.885Z,95092.30
2018-06-17T07:20:20.184Z,95099.34
2018-06-17T07:22:49.196Z,95104.38
2018-06-17T07:25:28.144Z,95102.22
2018-06-17T07:30:14.325Z,95103.31
2018-06-17T07:32:43.378Z,95109.46
2018-06-17T07:35:12.443Z,95108.78
2018-06-17T07:37:41.560Z,95106.25
2018-06-17T07:40:53.454Z,95108.66
2018-06-17T07:43:22.646Z,95104.36
2018-06-17T07:45:51.703Z,95106.57
2018-06-17T07:49:36.553Z,95110.41
2018-06-17T07:52:17.636Z,95106.84
2018-06-17T07:54:47.094Z,95103.50
2018-06-17T07:57:17.399Z,95106.11
2018-06-17T07:59:46.456Z,95111.33
2018-06-17T08:02:15.814Z,95112.55
2018-06-17T08:04:44.956Z,95112.73
2018-06-17T08:07:14.028Z,95121.38
2018-06-17T08:09:43.160Z,95120.45
2018-06-17T08:12:12.703Z,95120.00
2018-06-17T08:14:41.886Z,95125.66
2018-06-17T08:17:10.952Z,95121.22
2018-06-17T08:19:40.497Z,95122.62
2018-06-17T08:22:09.532Z,95125.91
2018-06-17T08:24:38.736Z,95126.02
2018-06-17T08:27:07.876Z,95130.53
2018-06-17T08:29:37.066Z,95122.18
2018-06-17T08:32:06.261Z,95115.16
2018-06-17T08:34:35.331Z,95123.55
2018-06-17T08:37:04.458Z,95126.17
2018-06-17T08:39:33.508Z,95138.48
2018-06-17T08:42:02.693Z,95124.14
2018-06-17T08:44:31.851Z,95126.67
2018-06-17T08:47:00.936Z,95121.53
2018-06-17T08:49:30.014Z,95123.30
2018-06-17T08:51:59.180Z,95120.83
2018-06-17T08:54:28.293Z,95112.59
2018-06-17T08:56:57.422Z,95118.20
2018-06-17T08:59:26.464Z,95121.71
2018-06-17T09:01:55.565Z,95115.20
2018-06-17T09:04:24.634Z,95118.30
2018-06-17T09:06:53.942Z,95120.30
2018-06-17T09:09:23.146Z,95114.86
2018-06-17T09:11:52.325Z,95113.11
2018-06-17T09:14:21.396Z,95113.43
2018-06-17T09:16:50.634Z,95115.91
2018-06-17T09:19:19.902Z,95122.16
2018-06-17T09:21:49.088Z,95119.34
2018-06-17T09:24:18.234Z,95124.67
2018-06-17T09:26:47.360Z,95126.11
2018-06-17T09:29:16.465Z,95138.11
2018-06-17T09:31:45.627Z,95121.75
2018-06-17T09:34:14.637Z,95131.59
2018-06-17T09:36:43.826Z,95113.03
2018-06-17T09:39:12.899Z,95123.27
2018-06-17T09:41:41.912Z,95114.20
2018-06-17T09:44:10.921Z,95120.50
2018-06-17T09:46:39.928Z,95121.15
2018-06-17T09:49:09.219Z,95123.32
2018-06-17T09:51:38.394Z,95116.39
2018-06-17T09:54:07.614Z,95126.33
2018-06-17T09:56:36.663Z,95125.77
2018-06-17T09:59:05.781Z,95130.98
2018-06-17T10:01:34.814Z,95122.37
2018-06-17T10:04:03.856Z,95121.93
2018-06-17T10:06:32.891Z,95133.92
2018-06-17T10:09:02.022Z,95136.84
2018-06-17T10:11:32.185Z,95133.08
2018-06-17T10:14:01.693Z,95129.91
2018-06-17T10:16:31.055Z,95132.04
2018-06-17T10:19:00.565Z,95143.13
2018-06-17T10:21:29.868Z,95136.78
2018-06-17T10:23:59.196Z,95141.59
2018-06-17T10:26:28.556Z,95132.75
2018-06-17T10:28:57.936Z,95137.30
2018-06-17T10:31:27.337Z,95141.09
2018-06-17T10:33:56.608Z,95140.69
2018-06-17T10:36:25.925Z,95138.40
2018-06-17T10:38:55.354Z,95142.76
2018-06-17T10:41:24.657Z,95138.58
2018-06-17T10:43:54.037Z,95132.56
2018-06-17T10:46:23.344Z,95139.27
2018-06-17T10:48:52.735Z,95137.53
2018-06-17T10:51:22.091Z,95134.77
2018-06-17T10:53:51.452Z,95142.88
2018-06-17T10:56:20.840Z,95147.42
2018-06-17T10:58:50.138Z,95136.77
2018-06-17T11:01:19.491Z,95138.51
2018-06-17T11:03:48.962Z,95149.59
2018-06-17T11:06:18.345Z,95145.03
2018-06-17T11:08:47.919Z,95138.17
2018-06-17T11:11:17.315Z,95142.25
2018-06-17T11:13:46.677Z,95144.22
2018-06-17T11:16:15.974Z,95145.76
2018-06-17T11:18:45.365Z,95146.04
2018-06-17T11:21:14.764Z,95144.61
2018-06-17T11:23:44.130Z,95148.03
2018-06-17T11:26:13.488Z,95149.34
2018-06-17T11:28:42.959Z,95153.78
2018-06-17T11:31:12.293Z,95151.38
2018-06-17T11:33:41.675Z,95152.04
2018-06-17T11:36:11.021Z,95148.31
2018-06-17T11:38:40.341Z,95145.85
2018-06-17T11:41:09.749Z,95147.97
2018-06-17T11:43:39.084Z,95147.77
2018-06-17T11:46:08.460Z,95148.48
2018-06-17T11:48:37.803Z,95152.06
2018-06-17T11:51:07.152Z,95151.20
2018-06-17T11:53:36.507Z,95153.30
2018-06-17T11:56:05.824Z,95151.94
2018-06-17T11:58:35.194Z,95148.75
2018-06-17T12:01:04.504Z,95146.21
2018-06-17T12:03:33.827Z,95142.17
2018-06-17T12:06:03.231Z,95149.03
2018-06-17T12:08:32.545Z,95152.28
2018-06-17T12:11:01.883Z,95155.56
2018-06-17T12:13:31.180Z,95154.22
2018-06-17T12:16:00.574Z,95158.28
2018-06-17T12:18:29.925Z,95157.59
2018-06-17T12:20:59.309Z,95156.55
2018-06-17T12:23:28.662Z,95146.57
2018-06-17T12:25:57.989Z,95151.74
2018-06-17T12:28:27.411Z,95149.62
2018-06-17T12:30:56.767Z,95139.62
2018-06-17T12:33:26.102Z,95146.98
2018-06-17T12:35:55.641Z,95153.04
2018-06-17T12:38:24.967Z,95154.47
2018-06-17T12:40:54.405Z,95151.42
2018-06-17T12:43:23.733Z,95149.92
2018-06-17T12:45:53.012Z,95152.64
2018-06-17T12:48:22.288Z,95160.98
2018-06-17T12:50:51.609Z,95152.96
2018-06-17T12:53:20.974Z,95146.37
2018-06-17T12:55:50.245Z,95150.06
2018-06-17T12:58:19.516Z,95132.50
2018-06-17T13:00:48.785Z,95148.08
2018-06-17T13:03:18.133Z,95144.34
2018-06-17T13:05:47.434Z,95139.05
2018-06-17T13:08:16.708Z,95137.94
2018-06-17T13:10:46.068Z,95148.73
2018-06-17T13:13:15.373Z,95142.67
2018-06-17T13:15:44.932Z,95145.02
2018-06-17T13:18:14.230Z,95144.56
2018-06-17T13:20:43.601Z,95141.36
2018-06-17T13:23:13.177Z,95138.82
2018-06-17T13:25:42.640Z,95127.20
2018-06-17T13:28:12.313Z,95140.63
2018-06-17T13:30:42.733Z,95156.84
2018-06-17T13:33:12.184Z,95151.20
2018-06-17T13:35:41.615Z,95144.91
2018-06-17T13:38:11.066Z,95147.38
2018-06-17T13:40:40.376Z,95149.25
2018-06-17T13:43:10.854Z,95151.06
2018-06-17T13:45:40.166Z,95152.72
2018-06-17T13:48:09.528Z,95156.45
2018-06-17T13:50:39.020Z,95153.43
2018-06-17T13:53:08.555Z,95153.95
2018-06-17T13:55:37.888Z,95160.98
2018-06-17T13:58:07.352Z,95159.98
2018-06-17T14:00:36.969Z,95158.16
2018-06-17T14:03:06.269Z,95160.48
2018-06-17T14:05:35.645Z,95161.80
2018-06-17T14:08:04.956Z,95164.05
2018-06-17T14:10:34.273Z,95163.95
2018-06-17T14:13:03.641Z,95167.18
2018-06-17T14:15:33.155Z,95168.72
2018-06-17T14:18:02.528Z,95166.36
2018-06-17T14:20:31.912Z,95173.17
2018-06-17T14:23:01.215Z,95178.73
2018-06-17T14:25:30.528Z,95171.69
2018-06-17T14:27:59.898Z,95164.43
2018-06-17T14:30:29.199Z,95167.84
2018-06-17T14:32:58.488Z,95163.52
2018-06-17T14:35:27.876Z,95165.97
2018-06-17T14:37:57.205Z,95160.51
2018-06-17T14:40:26.522Z,95168.36
2018-06-17T14:43:00.972Z,95174.13
2018-06-17T14:45:35.405Z,95181.21
2018-06-17T14:48:10.881Z,95180.20
2018-06-17T14:50:45.649Z,95173.93
2018-06-17T14:53:16.664Z,95181.45
2018-06-17T14:55:46.068Z,95182.14
2018-06-17T14:58:15.425Z,95188.06
2018-06-17T15:00:44.760Z,95182.91
2018-06-17T15:03:14.139Z,95184.83
2018-06-17T15:05:43.585Z,95185.75
2018-06-17T15:08:12.890Z,95183.19
2018-06-17T15:10:42.201Z,95181.11
2018-06-17T15:13:11.529Z,95183.42
2018-06-17T15:15:42.173Z,95182.94
2018-06-17T15:18:11.618Z,95179.91
2018-06-17T15:20:40.873Z,95178.80
2018-06-17T15:23:10.216Z,95179.10
2018-06-17T15:25:39.534Z,95186.53
2018-06-17T15:28:08.837Z,95182.65
2018-06-17T15:30:38.205Z,95181.98
2018-06-17T15:33:12.856Z,95188.11
2018-06-17T15:35:48.245Z,95190.34
2018-06-17T15:38:22.768Z,95196.54
2018-06-17T15:40:57.402Z,95194.11
2018-06-17T15:43:27.421Z,95190.30
2018-06-17T15:45:57.288Z,95186.97
2018-06-17T15:48:26.641Z,95183.89
2018-06-17T15:50:55.998Z,95183.05
2018-06-17T15:53:25.293Z,95181.26
2018-06-17T15:55:54.658Z,95182.01
2018-06-17T15:58:23.928Z,95180.34
2018-06-17T16:00:53.317Z,95181.18
2018-06-17T16:03:22.624Z,95185.48
2018-06-17T16:05:52.082Z,95188.08
2018-06-17T16:08:21.404Z,95190.61
2018-06-17T16:10:50.707Z,95193.02
2018-06-17T16:13:25.221Z,95195.17
2018-06-17T16:15:59.704Z,95195.77
2018-06-17T16:18:35.004Z,95198.30
2018-06-17T16:21:06.277Z,95185.42
2018-06-17T16:23:35.955Z,95196.09
2018-06-17T16:26:05.352Z,95190.63
2018-06-17T16:28:34.704Z,95197.22
2018-06-17T16:31:06.845Z,95196.91
2018-06-17T16:33:36.145Z,95198.11
2018-06-17T16:36:05.556Z,95202.98
2018-06-17T16:38:35.896Z,95203.16
2018-06-17T16:41:05.249Z,95194.70
2018-06-17T16:43:34.534Z,95203.12
2018-06-17T16:46:03.859Z,95204.50
2018-06-17T16:48:33.156Z,95207.14
2018-06-17T16:51:07.772Z,95215.60
2018-06-17T16:53:42.228Z,95215.70
2018-06-17T16:56:16.726Z,95214.41
2018-06-17T16:58:52.084Z,95217.16
2018-06-17T17:01:21.501Z,95219.72
2018-06-17T17:03:50.824Z,95221.67
2018-06-17T17:06:20.240Z,95208.56
2018-06-17T17:08:49.557Z,95210.20
2018-06-17T17:11:18.873Z,95215.16
2018-06-17T17:13:48.249Z,95211.20
2018-06-17T17:16:17.601Z,95215.77
2018-06-17T17:18:46.916Z,95217.33
2018-06-17T17:21:16.227Z,95221.05
2018-06-17T17:23:45.549Z,95223.51
2018-06-17T17:26:14.961Z,95227.17
2018-06-17T17:28:44.321Z,95233.16
2018-06-17T17:31:13.668Z,95234.84
2018-06-17T17:33:48.240Z,95231.20
2018-06-17T17:36:22.811Z,95242.30
2018-06-17T17:38:57.241Z,95242.21
2018-06-17T17:41:26.669Z,95239.67
2018-06-17T17:43:56.036Z,95248.20
2018-06-17T17:46:32.229Z,95256.38
2018-06-17T17:49:01.562Z,95254.20
2018-06-17T17:51:30.877Z,95252.58
2018-06-17T17:54:00.287Z,95253.31
2018-06-17T17:56:29.631Z,95262.84
2018-06-17T17:58:59.089Z,95264.91
2018-06-17T18:01:28.575Z,95262.53
2018-06-17T18:03:58.731Z,95269.98
2018-06-17T18:06:28.203Z,95278.17
2018-06-17T18:08:57.556Z,95279.55
2018-06-17T18:11:26.940Z,95288.64
2018-06-17T18:13:56.424Z,95286.90
2018-06-17T18:16:25.828Z,95286.05
2018-06-17T18:18:55.282Z,95279.07
2018-06-17T18:21:24.618Z,95271.23
2018-06-17T18:23:53.998Z,95276.44
2018-06-17T18:26:28.913Z,95275.61
2018-06-17T18:29:04.363Z,95277.16
2018-06-17T18:31:38.954Z,95275.33
2018-06-17T18:34:13.555Z,95276.78
2018-06-17T18:36:43.963Z,95274.46
2018-06-17T18:39:13.260Z,95267.55
2018-06-17T18:41:42.544Z,95271.48
2018-06-17T18:44:11.859Z,95273.31
2018-06-17T18:46:41.169Z,95270.41
2018-06-17T18:49:10.518Z,95270.81
2018-06-17T18:51:39.795Z,95268.86
2018-06-17T18:54:09.110Z,95267.21
2018-06-17T18:56:38.404Z,95277.44
2018-06-17T18:59:07.791Z,95275.06
2018-06-17T19:01:37.157Z,95282.86
2018-06-17T19:04:06.433Z,95289.30
2018-06-17T19:06:35.832Z,95277.69
2018-06-17T19:09:12.748Z,95273.86
2018-06-17T19:11:47.409Z,95268.76
2018-06-17T19:14:22.942Z,95274.52
2018-06-17T19:16:57.506Z,95263.50
2018-06-17T19:19:26.921Z,95265.81
2018-06-17T19:21:56.228Z,95273.78
2018-06-17T19:24:25.527Z,95271.52
2018-06-17T19:26:54.834Z,95269.16
2018-06-17T19:29:24.189Z,95266.88
2018-06-17T19:31:53.505Z,95270.53
2018-06-17T19:34:22.825Z,95274.05
2018-06-17T19:36:52.180Z,95270.72
2018-06-17T19:39:21.520Z,95271.20
2018-06-17T19:41:50.837Z,95278.00
2018-06-17T19:44:20.169Z,95270.34
2018-06-17T19:46:49.501Z,95272.50
2018-06-17T19:49:18.897Z,95266.51
2018-06-17T19:51:53.288Z,95270.00
2018-06-17T19:54:27.965Z,95266.06
2018-06-17T19:57:02.498Z,95267.85
2018-06-17T19:59:42.550Z,95268.18
2018-06-17T20:02:12.372Z,95261.11
2018-06-17T20:04:41.743Z,95261.44
2018-06-17T20:07:11.047Z,95262.06
2018-06-17T20:09:40.379Z,95264.42
2018-06-17T20:12:09.930Z,95270.80
2018-06-17T20:14:39.232Z,95275.42
2018-06-17T20:17:08.620Z,95272.67
2018-06-17T20:19:37.976Z,95281.66
2018-06-17T20:22:08.449Z,95295.08
2018-06-17T20:24:39.862Z,95295.27
2018-06-17T20:27:09.303Z,95294.98
2018-06-17T20:29:38.706Z,95313.05
2018-06-17T20:32:13.348Z,95307.69
2018-06-17T20:34:47.824Z,95308.41
2018-06-17T20:37:22.478Z,95309.50
2018-06-17T20:39:54.172Z,95314.31
2018-06-17T20:42:28.660Z,95316.57
2018-06-17T20:44:58.268Z,95318.17
2018-06-17T20:47:27.908Z,95321.92
2018-06-17T20:49:57.381Z,95318.25
2018-06-17T20:52:26.661Z,95322.96
2018-06-17T20:54:56.069Z,95317.47
2018-06-17T20:57:25.983Z,95326.80
2018-06-17T20:59:56.846Z,95333.38
2018-06-17T21:02:26.233Z,95328.23
2018-06-17T21:04:55.651Z,95331.46
2018-06-17T21:07:25.139Z,95338.18
2018-06-17T21:09:54.655Z,95340.54
2018-06-17T21:12:23.922Z,95344.37
2018-06-17T21:14:53.513Z,95341.17
2018-06-17T21:17:25.592Z,95345.55
2018-06-17T21:20:00.181Z,95341.66
2018-06-17T21:22:34.856Z,95352.13
2018-06-17T21:25:09.299Z,95346.73
2018-06-17T21:27:40.832Z,95356.77
2018-06-17T21:30:10.892Z,95356.11
2018-06-17T21:32:40.862Z,95350.96
2018-06-17T21:35:10.761Z,95355.16
2018-06-17T21:37:40.157Z,95357.13
2018-06-17T21:40:09.456Z,95354.34
2018-06-17T21:42:38.934Z,95348.56
2018-06-17T21:45:08.528Z,95354.53
2018-06-17T21:47:37.888Z,95355.91
2018-06-17T21:50:07.249Z,95362.39
2018-06-17T21:52:36.519Z,95364.16
2018-06-17T21:55:05.870Z,95359.80
2018-06-17T21:57:35.141Z,95355.55
2018-06-17T22:00:05.581Z,95360.53
2018-06-17T22:02:39.581Z,95367.09
2018-06-17T22:05:08.941Z,95362.78
2018-06-17T22:07:43.621Z,95366.80
2018-06-17T22:10:19.644Z,95367.77
2018-06-17T22:12:54.098Z,95372.86
2018-06-17T22:15:28.792Z,95365.93
2018-06-17T22:17:58.101Z,95365.70
2018-06-17T22:20:27.359Z,95370.50
2018-06-17T22:22:56.731Z,95371.80
2018-06-17T22:25:26.062Z,95375.58
2018-06-17T22:27:55.667Z,95375.97
2018-06-17T22:30:24.940Z,95373.95
2018-06-17T22:32:54.271Z,95377.48
2018-06-17T22:35:23.552Z,95375.73
2018-06-17T22:37:53.096Z,95374.73
2018-06-17T22:40:22.353Z,95373.17
2018-06-17T22:42:51.613Z,95376.88
2018-06-17T22:45:20.864Z,95367.34
2018-06-17T22:47:56.318Z,95360.66
2018-06-17T22:50:25.582Z,95363.47
2018-06-17T22:53:06.044Z,95367.89
2018-06-17T22:55:35.549Z,95369.72
2018-06-17T22:58:10.094Z,95367.84
2018-06-17T23:00:44.653Z,95372.17
2018-06-17T23:03:19.198Z,95381.73
2018-06-17T23:05:53.786Z,95378.24
2018-06-17T23:08:28.450Z,95380.09
2018-06-17T23:10:57.919Z,95386.15
2018-06-17T23:13:27.424Z,95388.41
2018-06-17T23:15:56.812Z,95388.39
2018-06-17T23:18:26.136Z,95383.10
2018-06-17T23:20:55.472Z,95380.77
2018-06-17T23:23:24.725Z,95382.92
2018-06-17T23:25:53.991Z,95377.56
2018-06-17T23:28:23.375Z,95379.31
2018-06-17T23:30:52.659Z,95383.10
2018-06-17T23:33:21.966Z,95377.56
2018-06-17T23:35:51.233Z,95384.00
2018-06-17T23:38:21.588Z,95374.47
2018-06-17T23:40:50.968Z,95379.55
2018-06-17T23:43:20.272Z,95379.95
2018-06-17T23:45:54.761Z,95377.53
2018-06-17T23:48:29.441Z,95385.59
2018-06-17T23:51:03.934Z,95389.17
2018-06-17T23:53:38.424Z,95395.84
2018-06-17T23:56:09.160Z,95396.56
2018-06-17T23:58:39.390Z,95409.55
